Etusivu
METAR-TAF:

METAR-TAF

Lentoasemat :

Ibizan lentoasema

Ibiza, Espanja

Leveyspiiri: 38-52N, Pituuspiiri: 001-23E, korkeus merenpinnasta: 7 m

Tämänhetkinen sää

Tämä raportti tehtiin 44 minuuttia sitten, kello 22.00 UTC
Tuuli 3 kn lännestä/luoteesta, vaihdellen lännen/lounaan ja luoteen välillä
Lämpötila 23°C
Kosteus 69%
Ilmanpaine 1017 hPa
Näkyvyys 10 km tai enemmän
ei pilviä alle 1500 m:ssä eikä cumulonimbus-pilviä

METAR: LEIB 222200Z 29003KT 250V320 CAVOK 23/17 Q1017 NOSIG

Aika: 00:44 (22:44 UTC)

Sääennuste

Tämä raportti tehtiin 2 tuntia ja 44 minuuttia sitten, kello 20.00 UTC
Ennuste voimassa 22. päivästä klo 21 UTC - 23. päivään klo 21 UTC
Tuuli 9 kn etelästä/lounaasta
Näkyvyys 10 km tai enemmän
Muutamia pilviä 2000 ft:n korkeudessa
Tulossa
22. päivästä klo 23 UTC - 23. päivään klo 01 UTC
Tuuli 5 kn pohjoisesta/koillisesta

TAF: LEIB 222000Z 2221/2321 20009KT 9999 FEW020 TX27/2312Z TN20/2305Z BECMG 2223/2301 03005KT

Säähavainnot ja -ennusteet yli 4000 lentoasemalta (METAR- ja TAF-raportit).

Käytössä olevat sääasemat on merkitty karttaan keltaisilla ja punaisilla pisteillä.

Aseta hiiri pisteen päälle nähdäksesi sääaseman nimen.

Klikkaa sitten nähdäksesi säähavainnot ja -ennusteet.

Kartan vaihtaminen: klikkaa mustalla rastilla varustettuja vihreitä pisteitä, niin voit zoomata sisään; viivalla varustettua vihreää pistettä, niin voit zoomata ulos tai vihreitä nuolia, niin pääset viereisille kartoille.


METAR-TAF: